Time;durP1;ratioP1;P1;durP2;ratioP2;P2;SDS_P1;SDS_P2;PMS_P1;PMS_P2;Temp;Humidity;BMP_temperature;BMP_pressure;BME280_temperature;BME280_humidity;BME280_pressure;Samples;Min_cycle;Max_cycle;Signal;HPM_P1;HPM_P2
2021/11/30 00:02:22;;;;;;;;;;;14.10;99.90;;;;;;5083928;28;1441;-51
2021/11/30 00:05:08;;;;;;;;;;;14.10;99.90;;;;;;5121225;27;1690;-51
2021/11/30 00:07:56;;;;;;;;;;;14.00;99.90;;;;;;5095483;28;1448;-51
2021/11/30 00:10:46;;;;;;;;;;;14.00;99.90;;;;;;5062686;28;1921;-51
2021/11/30 00:13:36;;;;;;;;;;;13.90;99.90;;;;;;5088357;28;1530;-51
2021/11/30 00:16:21;;;;;;;;;;;13.80;99.90;;;;;;5092075;28;1451;-51
2021/11/30 00:19:10;;;;;;;;;;;13.80;99.90;;;;;;5092711;28;1496;-51
2021/11/30 00:21:56;;;;;;;;;;;13.70;99.90;;;;;;5081048;28;1500;-54
2021/11/30 00:24:45;;;;;;;;;;;13.70;99.90;;;;;;5093294;28;1492;-54
2021/11/30 00:27:30;;;;;;;;;;;13.60;99.90;;;;;;5093550;28;1793;-54
2021/11/30 00:30:16;;;;;;;;;;;13.50;99.90;;;;;;5121214;27;1898;-54
2021/11/30 00:33:04;;;;;;;;;;;13.50;99.90;;;;;;5105184;27;1479;-53
2021/11/30 00:35:50;;;;;;;;;;;13.40;99.90;;;;;;5077878;28;1478;-53
2021/11/30 00:38:35;;;;;;;;;;;13.40;99.90;;;;;;5078703;28;1454;-53
2021/11/30 00:41:21;;;;;;;;;;;13.30;99.90;;;;;;5095646;28;1414;-53
2021/11/30 00:44:08;;;;;;;;;;;13.30;99.90;;;;;;5095477;28;1594;-54
2021/11/30 00:46:55;;;;;;;;;;;13.30;99.90;;;;;;5095127;28;1638;-54
2021/11/30 00:49:42;;;;;;;;;;;13.20;99.90;;;;;;5095413;28;1399;-54
2021/11/30 00:52:28;;;;;;;;;;;13.10;99.90;;;;;;5095703;28;1491;-54
2021/11/30 00:55:14;;;;;;;;;;;13.10;99.90;;;;;;5106902;28;1592;-53
2021/11/30 00:58:00;;;;;;;;;;;13.00;99.90;;;;;;5095285;28;1462;-53
2021/11/30 01:00:46;;;;;;;;;;;13.00;99.90;;;;;;5095126;28;1679;-54
2021/11/30 01:03:32;;;;;;;;;;;13.00;99.90;;;;;;5095301;28;1388;-53
2021/11/30 01:06:18;;;;;;;;;;;12.90;99.90;;;;;;5095160;28;1479;-54
2021/11/30 01:09:06;;;;;;;;;;;12.90;99.90;;;;;;5094892;28;1414;-52
2021/11/30 01:11:55;;;;;;;;;;;12.90;99.90;;;;;;5080340;28;1913;-53
2021/11/30 01:14:41;;;;;;;;;;;12.90;99.90;;;;;;5095095;28;1419;-53
2021/11/30 01:17:27;;;;;;;;;;;12.90;99.90;;;;;;5047650;28;1423;-53
2021/11/30 01:20:15;;;;;;;;;;;12.80;99.90;;;;;;5093857;28;1427;-53
2021/11/30 01:23:00;;;;;;;;;;;12.80;99.90;;;;;;5094673;28;1434;-53
2021/11/30 01:25:48;;;;;;;;;;;12.80;99.90;;;;;;5095155;28;1557;-53
2021/11/30 01:28:34;;;;;;;;;;;12.70;99.90;;;;;;5081349;28;1397;-53
2021/11/30 01:31:20;;;;;;;;;;;12.70;99.90;;;;;;5094571;28;1969;-53
2021/11/30 01:34:06;;;;;;;;;;;12.70;99.90;;;;;;5094863;28;1455;-53
2021/11/30 01:36:53;;;;;;;;;;;12.70;99.90;;;;;;5074525;28;1792;-53
2021/11/30 01:39:40;;;;;;;;;;;12.70;99.90;;;;;;5094913;28;1470;-52
2021/11/30 01:42:27;;;;;;;;;;;12.70;99.90;;;;;;5094766;28;1410;-53
2021/11/30 01:45:21;;;;;;;;;;;12.70;99.90;;;;;;5080654;28;1454;-53
2021/11/30 01:50:56;;;;;;;;;;;12.70;99.90;;;;;;5094584;28;1967;-53
2021/11/30 01:53:42;;;;;;;;;;;12.60;99.90;;;;;;5094208;28;1634;-50
2021/11/30 01:56:28;;;;;;;;;;;12.60;99.90;;;;;;5094460;28;1645;-50
2021/11/30 01:59:14;;;;;;;;;;;12.60;99.90;;;;;;5094445;28;1566;-52
2021/11/30 02:02:00;;;;;;;;;;;12.60;99.90;;;;;;5094145;28;1450;-53
2021/11/30 02:04:46;;;;;;;;;;;12.60;99.90;;;;;;5094557;28;1395;-52
2021/11/30 02:07:32;;;;;;;;;;;12.60;99.90;;;;;;5094774;28;1448;-53
2021/11/30 02:10:19;;;;;;;;;;;12.60;99.90;;;;;;5094139;28;1909;-54
2021/11/30 02:13:05;;;;;;;;;;;12.60;99.90;;;;;;5094189;28;1435;-53
2021/11/30 02:15:55;;;;;;;;;;;12.60;99.90;;;;;;5079085;28;1411;-54
2021/11/30 02:18:44;;;;;;;;;;;12.60;99.90;;;;;;5047618;28;1440;-53
2021/11/30 02:21:33;;;;;;;;;;;12.60;99.90;;;;;;5089893;28;1573;-52
2021/11/30 02:24:19;;;;;;;;;;;12.50;99.90;;;;;;5094366;28;1585;-54
2021/11/30 02:27:05;;;;;;;;;;;12.50;99.90;;;;;;5094503;28;1655;-53
2021/11/30 02:29:51;;;;;;;;;;;12.50;99.90;;;;;;5094246;28;1561;-53
2021/11/30 02:32:37;;;;;;;;;;;12.50;99.90;;;;;;5094191;28;1614;-53
2021/11/30 02:35:23;;;;;;;;;;;12.50;99.90;;;;;;5094460;28;1459;-53
2021/11/30 02:38:10;;;;;;;;;;;12.50;99.90;;;;;;5094292;28;1391;-53
2021/11/30 02:40:57;;;;;;;;;;;12.40;99.90;;;;;;5095939;28;1428;-53
2021/11/30 02:43:44;;;;;;;;;;;12.40;99.90;;;;;;5098129;28;1479;-53
2021/11/30 02:46:33;;;;;;;;;;;12.40;99.90;;;;;;5097842;28;1442;-53
2021/11/30 02:49:20;;;;;;;;;;;12.40;99.90;;;;;;5097712;28;1480;-53
2021/11/30 02:52:08;;;;;;;;;;;12.40;99.90;;;;;;5097436;28;1977;-54
2021/11/30 02:54:54;;;;;;;;;;;12.40;99.90;;;;;;5097374;28;1462;-53
2021/11/30 02:57:40;;;;;;;;;;;12.40;99.90;;;;;;5097284;28;2092;-53
2021/11/30 03:00:26;;;;;;;;;;;12.30;99.90;;;;;;5097241;28;1419;-53
2021/11/30 03:03:13;;;;;;;;;;;12.40;99.90;;;;;;5097621;28;1435;-53
2021/11/30 03:05:59;;;;;;;;;;;12.30;99.90;;;;;;5094580;28;1546;-52
2021/11/30 03:08:46;;;;;;;;;;;12.30;99.90;;;;;;5097476;28;1566;-53
2021/11/30 03:11:32;;;;;;;;;;;12.30;99.90;;;;;;5097302;28;1905;-53
2021/11/30 03:14:18;;;;;;;;;;;12.30;99.90;;;;;;5097301;28;1410;-54
2021/11/30 03:17:07;;;;;;;;;;;12.30;99.90;;;;;;5097124;28;1439;-53
2021/11/30 03:19:54;;;;;;;;;;;12.30;99.90;;;;;;5097011;28;1575;-53
2021/11/30 03:22:41;;;;;;;;;;;12.30;99.90;;;;;;5097146;28;1407;-53
2021/11/30 03:25:28;;;;;;;;;;;12.20;99.90;;;;;;5097085;28;2070;-53
2021/11/30 03:28:16;;;;;;;;;;;12.20;99.90;;;;;;5097152;28;1606;-53
2021/11/30 03:31:08;;;;;;;;;;;12.20;99.90;;;;;;5096577;28;1901;-54
2021/11/30 03:34:01;;;;;;;;;;;12.20;99.90;;;;;;5097150;28;1415;-53
2021/11/30 03:36:52;;;;;;;;;;;12.20;99.90;;;;;;5096548;28;1680;-53
2021/11/30 03:39:38;;;;;;;;;;;12.10;99.90;;;;;;5096989;28;1542;-54
2021/11/30 03:42:26;;;;;;;;;;;12.10;99.90;;;;;;5092171;28;1614;-53
2021/11/30 03:45:13;;;;;;;;;;;12.10;99.90;;;;;;5090636;28;1995;-53
2021/11/30 03:48:00;;;;;;;;;;;12.10;99.90;;;;;;5063127;28;1607;-53
2021/11/30 03:50:47;;;;;;;;;;;12.10;99.90;;;;;;5079718;28;1906;-53
2021/11/30 03:53:34;;;;;;;;;;;12.10;99.90;;;;;;5043874;28;1483;-52
2021/11/30 03:56:21;;;;;;;;;;;12.10;99.90;;;;;;5078001;28;1610;-52
2021/11/30 03:59:07;;;;;;;;;;;12.00;99.90;;;;;;5072606;28;1594;-53
2021/11/30 04:01:54;;;;;;;;;;;12.00;99.90;;;;;;5100495;28;1663;-53
2021/11/30 04:04:42;;;;;;;;;;;12.00;99.90;;;;;;5101778;28;1722;-54
2021/11/30 04:07:30;;;;;;;;;;;12.00;99.90;;;;;;5085202;28;1672;-54
2021/11/30 04:10:16;;;;;;;;;;;12.00;99.90;;;;;;5098781;28;1697;-53
2021/11/30 04:13:02;;;;;;;;;;;12.00;99.90;;;;;;5101500;28;1523;-52
2021/11/30 04:15:47;;;;;;;;;;;12.00;99.90;;;;;;5095674;28;1692;-53
2021/11/30 04:18:34;;;;;;;;;;;11.90;99.90;;;;;;5096126;28;1449;-53
2021/11/30 04:21:19;;;;;;;;;;;11.90;99.90;;;;;;5096098;28;1489;-53
2021/11/30 04:24:06;;;;;;;;;;;11.90;99.90;;;;;;5087548;28;1442;-53
2021/11/30 04:26:52;;;;;;;;;;;11.90;99.90;;;;;;5060687;28;1535;-53
2021/11/30 04:29:41;;;;;;;;;;;11.90;99.90;;;;;;5094162;28;1431;-53
2021/11/30 04:32:27;;;;;;;;;;;11.90;99.90;;;;;;5095883;28;1914;-53
2021/11/30 04:35:14;;;;;;;;;;;11.80;99.90;;;;;;5095855;28;1535;-53
2021/11/30 04:38:00;;;;;;;;;;;11.80;99.90;;;;;;5095818;28;1466;-53
2021/11/30 04:40:46;;;;;;;;;;;11.80;99.90;;;;;;5095700;28;1611;-53
2021/11/30 04:43:35;;;;;;;;;;;11.80;99.90;;;;;;5095893;28;1448;-53
2021/11/30 04:46:25;;;;;;;;;;;11.80;99.90;;;;;;5095452;28;1551;-54
2021/11/30 04:49:35;;;;;;;;;;;11.80;99.90;;;;;;5095300;28;1433;-54
2021/11/30 04:52:21;;;;;;;;;;;11.80;99.90;;;;;;5095155;28;1957;-53
2021/11/30 04:55:07;;;;;;;;;;;11.80;99.90;;;;;;5094801;28;1502;-54
2021/11/30 04:57:55;;;;;;;;;;;11.80;99.90;;;;;;5094926;28;1445;-53
2021/11/30 05:00:41;;;;;;;;;;;11.80;99.90;;;;;;5095043;28;1559;-53
2021/11/30 05:03:27;;;;;;;;;;;11.70;99.90;;;;;;5094905;28;1387;-53
2021/11/30 05:06:13;;;;;;;;;;;11.70;99.90;;;;;;5095365;28;1425;-53
2021/11/30 05:09:02;;;;;;;;;;;11.70;99.90;;;;;;5094852;28;1464;-54
2021/11/30 05:11:49;;;;;;;;;;;11.70;99.90;;;;;;5066751;28;1980;-52
2021/11/30 05:14:35;;;;;;;;;;;11.70;99.90;;;;;;5081100;28;1596;-53
2021/11/30 05:17:20;;;;;;;;;;;11.70;99.90;;;;;;5094748;28;1712;-53
2021/11/30 05:20:07;;;;;;;;;;;11.70;99.90;;;;;;5094851;28;1408;-52
2021/11/30 05:22:55;;;;;;;;;;;11.70;99.90;;;;;;5095063;28;1618;-53
2021/11/30 05:25:44;;;;;;;;;;;11.70;99.90;;;;;;5095332;28;1570;-53
2021/11/30 05:28:30;;;;;;;;;;;11.70;99.90;;;;;;5095341;28;1481;-53
2021/11/30 05:31:16;;;;;;;;;;;11.60;99.90;;;;;;5080488;28;1967;-52
2021/11/30 05:34:03;;;;;;;;;;;11.60;99.90;;;;;;5081031;28;1560;-53
2021/11/30 05:36:49;;;;;;;;;;;11.60;99.90;;;;;;5066201;28;1464;-53
2021/11/30 05:39:35;;;;;;;;;;;11.60;99.90;;;;;;5094914;28;1557;-54
2021/11/30 05:42:21;;;;;;;;;;;11.60;99.90;;;;;;5094815;28;1395;-53
2021/11/30 05:45:08;;;;;;;;;;;11.60;99.90;;;;;;5094824;28;1690;-53
2021/11/30 05:47:54;;;;;;;;;;;11.60;99.90;;;;;;5089231;28;1690;-53
2021/11/30 05:50:41;;;;;;;;;;;11.60;99.90;;;;;;5076112;28;1949;-52
2021/11/30 05:53:28;;;;;;;;;;;11.50;99.90;;;;;;5081347;28;1446;-52
2021/11/30 05:56:14;;;;;;;;;;;11.60;99.90;;;;;;5092052;28;1558;-52
2021/11/30 05:59:00;;;;;;;;;;;11.60;99.90;;;;;;5100412;28;1467;-52
2021/11/30 06:01:46;;;;;;;;;;;11.60;99.90;;;;;;5072243;28;1435;-52
2021/11/30 06:04:32;;;;;;;;;;;11.70;99.90;;;;;;5100700;28;1391;-52
2021/11/30 06:07:18;;;;;;;;;;;11.70;99.90;;;;;;5100432;28;1664;-52
2021/11/30 06:10:04;;;;;;;;;;;11.80;99.90;;;;;;5100829;28;1635;-52
2021/11/30 06:12:50;;;;;;;;;;;11.90;99.90;;;;;;5100286;28;1972;-52
2021/11/30 06:15:36;;;;;;;;;;;12.00;99.90;;;;;;5087835;28;1442;-52
2021/11/30 06:18:22;;;;;;;;;;;12.10;99.90;;;;;;5102407;28;1432;-52
2021/11/30 06:21:09;;;;;;;;;;;12.20;99.90;;;;;;5104750;28;1501;-54
2021/11/30 06:23:55;;;;;;;;;;;12.40;99.90;;;;;;5074441;28;1436;-53
2021/11/30 06:26:41;;;;;;;;;;;12.60;99.90;;;;;;5104617;28;1407;-53
2021/11/30 06:29:27;;;;;;;;;;;12.70;99.90;;;;;;5104126;28;1455;-53
2021/11/30 06:32:13;;;;;;;;;;;12.90;99.90;;;;;;5103866;28;1955;-52
2021/11/30 06:34:59;;;;;;;;;;;13.10;99.90;;;;;;5104260;28;1412;-52
2021/11/30 06:37:45;;;;;;;;;;;13.30;99.90;;;;;;5090145;28;1437;-52
2021/11/30 06:40:31;;;;;;;;;;;13.50;99.90;;;;;;5104477;28;1443;-52
2021/11/30 06:43:17;;;;;;;;;;;13.70;99.90;;;;;;5104196;28;1443;-52
2021/11/30 06:46:04;;;;;;;;;;;13.80;99.90;;;;;;5104388;28;1418;-53
2021/11/30 06:48:50;;;;;;;;;;;14.00;99.90;;;;;;5103420;28;1534;-52
2021/11/30 06:51:36;;;;;;;;;;;14.10;99.90;;;;;;5103957;28;1913;-52
2021/11/30 06:54:22;;;;;;;;;;;14.20;99.90;;;;;;5104219;28;1447;-52
2021/11/30 06:57:08;;;;;;;;;;;14.30;99.90;;;;;;5103651;28;1557;-52
2021/11/30 06:59:59;;;;;;;;;;;14.40;99.90;;;;;;5085145;28;1423;-52
2021/11/30 07:02:45;;;;;;;;;;;14.40;99.90;;;;;;5073567;28;1575;-52
2021/11/30 07:05:38;;;;;;;;;;;14.40;99.90;;;;;;5059356;28;1816;-52
2021/11/30 07:14:35;;;;;;;;;;;14.50;99.90;;;;;;5103581;28;1586;-53
2021/11/30 07:17:21;;;;;;;;;;;14.50;99.90;;;;;;5103130;28;1470;-52
2021/11/30 07:20:07;;;;;;;;;;;14.50;99.90;;;;;;5103589;28;1467;-54
2021/11/30 07:22:56;;;;;;;;;;;14.50;99.90;;;;;;5103379;28;1625;-52
2021/11/30 07:25:43;;;;;;;;;;;14.60;99.90;;;;;;5097431;28;1505;-53
2021/11/30 07:28:30;;;;;;;;;;;14.60;99.90;;;;;;5101080;28;1450;-53
2021/11/30 07:31:16;;;;;;;;;;;14.60;99.90;;;;;;5102914;28;1969;-53
2021/11/30 07:34:03;;;;;;;;;;;14.60;99.90;;;;;;5098636;28;1466;-54
2021/11/30 07:36:50;;;;;;;;;;;14.70;99.90;;;;;;5102073;28;1640;-52
2021/11/30 07:39:36;;;;;;;;;;;14.70;99.90;;;;;;5074067;28;1496;-52
2021/11/30 07:42:24;;;;;;;;;;;14.70;99.90;;;;;;5075211;28;1542;-54
2021/11/30 07:45:11;;;;;;;;;;;14.70;99.90;;;;;;5080053;28;1536;-54
2021/11/30 07:47:59;;;;;;;;;;;14.70;99.90;;;;;;5091076;28;1485;-53
2021/11/30 07:50:45;;;;;;;;;;;14.70;99.90;;;;;;5081364;28;1479;-52
2021/11/30 07:53:31;;;;;;;;;;;14.60;99.90;;;;;;5053368;28;1540;-52
2021/11/30 07:56:17;;;;;;;;;;;14.60;99.90;;;;;;5075996;28;1564;-52
2021/11/30 07:59:04;;;;;;;;;;;14.60;99.90;;;;;;5080107;28;1404;-52
2021/11/30 08:01:50;;;;;;;;;;;14.60;99.90;;;;;;5071098;28;1794;-52
2021/11/30 08:04:36;;;;;;;;;;;14.60;99.90;;;;;;5070405;28;1502;-52
2021/11/30 08:07:24;;;;;;;;;;;14.60;99.90;;;;;;5067883;28;1447;-52
2021/11/30 08:10:13;;;;;;;;;;;14.60;99.90;;;;;;5079435;28;1637;-52
2021/11/30 08:12:59;;;;;;;;;;;14.60;99.90;;;;;;5089682;28;1886;-52
2021/11/30 08:15:48;;;;;;;;;;;14.60;99.90;;;;;;5091550;28;1513;-54
2021/11/30 08:18:34;;;;;;;;;;;14.60;99.90;;;;;;5091223;28;1551;-53
2021/11/30 08:21:21;;;;;;;;;;;14.60;99.90;;;;;;5083363;28;1490;-53
2021/11/30 08:24:08;;;;;;;;;;;14.60;99.90;;;;;;5091766;28;1703;-51
2021/11/30 08:26:55;;;;;;;;;;;14.60;99.90;;;;;;5094533;28;1650;-53
2021/11/30 08:29:44;;;;;;;;;;;14.70;99.90;;;;;;5096042;28;1478;-52
2021/11/30 08:32:30;;;;;;;;;;;14.70;99.90;;;;;;5092834;28;1975;-53
2021/11/30 08:35:16;;;;;;;;;;;14.70;99.90;;;;;;5095452;28;1530;-52
2021/11/30 08:38:03;;;;;;;;;;;14.80;99.90;;;;;;5095342;28;1453;-52
2021/11/30 08:40:50;;;;;;;;;;;14.80;99.90;;;;;;5095306;28;1585;-53
2021/11/30 08:43:37;;;;;;;;;;;14.80;99.90;;;;;;5095763;28;1459;-53
2021/11/30 08:46:24;;;;;;;;;;;14.90;99.90;;;;;;5095061;28;1708;-53
2021/11/30 08:49:10;;;;;;;;;;;15.00;99.90;;;;;;5081886;28;1569;-53
2021/11/30 08:51:57;;;;;;;;;;;15.00;99.90;;;;;;5091089;28;1937;-54
2021/11/30 08:54:44;;;;;;;;;;;15.10;99.90;;;;;;5095010;28;1786;-52
2021/11/30 08:57:30;;;;;;;;;;;15.00;99.90;;;;;;5094936;28;1430;-52
2021/11/30 09:00:20;;;;;;;;;;;15.00;99.90;;;;;;5094851;28;1956;-52
2021/11/30 09:03:07;;;;;;;;;;;15.00;99.90;;;;;;5095090;28;1629;-52
2021/11/30 09:05:54;;;;;;;;;;;14.90;99.90;;;;;;5090363;28;1427;-52
2021/11/30 09:08:41;;;;;;;;;;;15.00;99.90;;;;;;5048332;28;1461;-52
2021/11/30 09:11:29;;;;;;;;;;;14.90;99.90;;;;;;5078629;28;1913;-52
2021/11/30 09:14:19;;;;;;;;;;;15.00;99.90;;;;;;5089982;28;1499;-52
2021/11/30 09:17:05;;;;;;;;;;;15.00;99.90;;;;;;5090208;28;1449;-52
2021/11/30 09:19:53;;;;;;;;;;;15.00;99.90;;;;;;5079860;28;1435;-52
2021/11/30 09:22:39;;;;;;;;;;;15.10;99.90;;;;;;5041389;28;1433;-52
2021/11/30 09:25:25;;;;;;;;;;;15.20;99.90;;;;;;5035760;28;1632;-53
2021/11/30 09:28:12;;;;;;;;;;;15.20;99.90;;;;;;5049760;28;1462;-52
2021/11/30 09:31:00;;;;;;;;;;;15.30;99.90;;;;;;5058872;28;1725;-52
2021/11/30 09:33:47;;;;;;;;;;;15.30;99.90;;;;;;5059319;28;1563;-53
2021/11/30 09:36:33;;;;;;;;;;;15.30;99.90;;;;;;5048860;28;1736;-54
2021/11/30 09:39:19;;;;;;;;;;;15.20;99.90;;;;;;5048909;28;1549;-53
2021/11/30 09:42:05;;;;;;;;;;;15.40;99.90;;;;;;5024421;28;1553;-53
2021/11/30 09:44:53;;;;;;;;;;;15.40;99.90;;;;;;5059773;28;1475;-52
2021/11/30 09:47:41;;;;;;;;;;;15.50;99.90;;;;;;5054128;28;1435;-52
2021/11/30 09:50:28;;;;;;;;;;;15.60;99.90;;;;;;5060327;28;1540;-52
2021/11/30 09:53:15;;;;;;;;;;;15.60;99.90;;;;;;5076794;28;1971;-53
2021/11/30 09:56:01;;;;;;;;;;;15.70;99.90;;;;;;5102598;28;1657;-52
2021/11/30 09:58:48;;;;;;;;;;;15.90;99.90;;;;;;5114620;27;1733;-52
2021/11/30 10:01:16;;;;;;;;;;;16.20;99.90;;;;;;5113412;28;1006;-52
2021/11/30 10:04:03;;;;;;;;;;;16.40;99.90;;;;;;5099485;28;1642;-52
2021/11/30 10:06:30;;;;;;;;;;;16.40;99.90;;;;;;5111887;28;1123;-52
2021/11/30 10:08:57;;;;;;;;;;;16.30;99.90;;;;;;5106667;28;944;-53
2021/11/30 10:11:34;;;;;;;;;;;16.30;99.90;;;;;;5100267;28;1909;-52
2021/11/30 10:14:11;;;;;;;;;;;16.20;99.90;;;;;;5100812;28;907;-52
2021/11/30 10:16:37;;;;;;;;;;;16.20;99.90;;;;;;5105310;28;1098;-53
2021/11/30 10:19:03;;;;;;;;;;;16.20;99.90;;;;;;5100450;28;836;-52
2021/11/30 10:21:29;;;;;;;;;;;16.20;99.90;;;;;;5118509;28;820;-52
2021/11/30 10:23:59;;;;;;;;;;;16.20;99.90;;;;;;5100986;28;1704;-53
2021/11/30 10:26:31;;;;;;;;;;;16.30;99.90;;;;;;5117043;28;1022;-53
2021/11/30 10:29:08;;;;;;;;;;;16.30;99.90;;;;;;5100506;28;1318;-54
2021/11/30 10:31:39;;;;;;;;;;;16.20;99.90;;;;;;5114407;28;1968;-52
2021/11/30 10:34:12;;;;;;;;;;;16.20;99.90;;;;;;5119025;28;874;-52
2021/11/30 10:36:46;;;;;;;;;;;16.20;99.90;;;;;;5111499;28;1021;-53
2021/11/30 10:39:19;;;;;;;;;;;16.20;99.90;;;;;;5104627;28;1092;-52
2021/11/30 10:41:48;;;;;;;;;;;16.30;99.90;;;;;;5099092;28;1078;-53
2021/11/30 10:44:14;;;;;;;;;;;16.30;99.90;;;;;;5105275;28;1071;-52
2021/11/30 10:46:40;;;;;;;;;;;16.20;99.90;;;;;;5105465;28;1217;-52
2021/11/30 10:49:08;;;;;;;;;;;16.20;99.90;;;;;;5084818;28;1562;-52
2021/11/30 10:51:43;;;;;;;;;;;16.10;99.90;;;;;;5106029;28;1973;-52
2021/11/30 10:54:11;;;;;;;;;;;16.10;99.90;;;;;;5098813;28;995;-52
2021/11/30 10:56:37;;;;;;;;;;;16.00;99.90;;;;;;5112688;28;1051;-54
2021/11/30 10:59:03;;;;;;;;;;;15.90;99.90;;;;;;5113677;28;1107;-52
2021/11/30 11:01:30;;;;;;;;;;;15.90;99.90;;;;;;5113830;28;1173;-52
2021/11/30 11:04:14;;;;;;;;;;;15.90;99.90;;;;;;5098951;28;1222;-52
2021/11/30 11:07:00;;;;;;;;;;;15.80;99.90;;;;;;5115640;28;1131;-53
2021/11/30 11:09:36;;;;;;;;;;;15.80;99.90;;;;;;5103384;28;1277;-52
2021/11/30 11:12:04;;;;;;;;;;;15.90;99.90;;;;;;5099301;28;1909;-52
2021/11/30 11:14:42;;;;;;;;;;;15.90;99.90;;;;;;5099404;28;944;-53
2021/11/30 11:17:10;;;;;;;;;;;15.90;99.90;;;;;;5099181;28;812;-53
2021/11/30 11:19:41;;;;;;;;;;;15.90;99.90;;;;;;5081092;28;1018;-52
2021/11/30 11:22:20;;;;;;;;;;;15.90;99.90;;;;;;5099153;28;891;-53
2021/11/30 11:24:52;;;;;;;;;;;16.00;99.90;;;;;;5104941;28;980;-52
2021/11/30 11:27:40;;;;;;;;;;;16.10;99.90;;;;;;5098704;28;929;-53
2021/11/30 11:30:08;;;;;;;;;;;16.10;99.90;;;;;;5098790;28;960;-53
2021/11/30 11:32:36;;;;;;;;;;;16.20;99.90;;;;;;5097566;28;1909;-52
2021/11/30 11:35:03;;;;;;;;;;;16.30;99.90;;;;;;5112248;28;1041;-54
2021/11/30 11:37:29;;;;;;;;;;;16.30;99.90;;;;;;5113532;28;1028;-53
2021/11/30 11:39:55;;;;;;;;;;;16.40;99.90;;;;;;5098845;28;953;-53
2021/11/30 11:42:22;;;;;;;;;;;16.30;99.90;;;;;;5088734;28;1186;-52
2021/11/30 11:44:50;;;;;;;;;;;16.30;99.90;;;;;;5104980;28;953;-54
2021/11/30 11:47:20;;;;;;;;;;;16.30;99.90;;;;;;5110644;28;1234;-55
2021/11/30 11:49:48;;;;;;;;;;;16.50;99.90;;;;;;5102788;28;1050;-54
2021/11/30 11:52:18;;;;;;;;;;;16.50;99.90;;;;;;5106518;28;1910;-54
2021/11/30 11:54:54;;;;;;;;;;;16.50;99.90;;;;;;5113309;28;1006;-54
2021/11/30 11:57:23;;;;;;;;;;;16.30;99.90;;;;;;5092339;28;1047;-54
2021/11/30 11:59:50;;;;;;;;;;;15.60;99.90;;;;;;5065562;28;1579;-53
2021/11/30 12:02:21;;;;;;;;;;;15.20;99.90;;;;;;5060112;28;1004;-53
2021/11/30 12:04:58;;;;;;;;;;;14.90;99.90;;;;;;5061398;28;1092;-52
2021/11/30 12:07:26;;;;;;;;;;;14.80;99.90;;;;;;5063583;28;958;-53
2021/11/30 12:10:11;;;;;;;;;;;14.60;99.90;;;;;;5050410;28;1564;-53
2021/11/30 12:12:37;;;;;;;;;;;14.60;99.90;;;;;;5070808;28;1981;-53
2021/11/30 12:15:06;;;;;;;;;;;14.50;99.90;;;;;;5071613;28;1306;-54
2021/11/30 12:17:32;;;;;;;;;;;14.30;99.90;;;;;;5073521;28;993;-53
2021/11/30 12:19:58;;;;;;;;;;;14.20;99.90;;;;;;5072504;28;1591;-52
2021/11/30 12:22:42;;;;;;;;;;;14.10;99.90;;;;;;5067167;28;950;-54
2021/11/30 12:25:20;;;;;;;;;;;14.00;99.90;;;;;;5058159;28;970;-54
2021/11/30 12:27:46;;;;;;;;;;;14.00;99.90;;;;;;5064186;28;970;-53
2021/11/30 12:30:31;;;;;;;;;;;14.00;99.90;;;;;;5074423;28;1054;-53
2021/11/30 12:32:59;;;;;;;;;;;14.00;99.90;;;;;;5070074;28;1902;-54
2021/11/30 12:35:40;;;;;;;;;;;13.90;99.90;;;;;;5070171;28;949;-53
2021/11/30 12:38:26;;;;;;;;;;;13.80;99.90;;;;;;5068118;28;973;-58
2021/11/30 12:40:53;;;;;;;;;;;13.80;99.90;;;;;;5072972;28;1144;-53
2021/11/30 12:43:25;;;;;;;;;;;14.00;99.90;;;;;;5074273;28;1130;-54
2021/11/30 12:45:52;;;;;;;;;;;14.10;99.90;;;;;;5069526;28;1119;-54
2021/11/30 12:48:35;;;;;;;;;;;14.20;99.90;;;;;;5059422;28;1250;-54
2021/11/30 12:51:22;;;;;;;;;;;14.30;99.90;;;;;;5036357;28;1295;-53
2021/11/30 12:53:55;;;;;;;;;;;14.30;99.90;;;;;;5062874;28;1906;-53
2021/11/30 12:56:40;;;;;;;;;;;14.30;99.90;;;;;;5086202;28;1005;-53
2021/11/30 12:59:06;;;;;;;;;;;14.40;99.90;;;;;;5111416;28;1250;-52
2021/11/30 13:01:33;;;;;;;;;;;14.50;99.90;;;;;;5112207;28;965;-54
2021/11/30 13:04:32;;;;;;;;;;;14.50;99.90;;;;;;5097486;28;1044;-52
2021/11/30 13:07:01;;;;;;;;;;;14.60;99.90;;;;;;5110493;28;1048;-52
2021/11/30 13:09:36;;;;;;;;;;;14.70;99.90;;;;;;5097711;28;996;-52
2021/11/30 13:12:02;;;;;;;;;;;14.80;99.90;;;;;;5114591;28;1909;-52
2021/11/30 13:14:28;;;;;;;;;;;14.90;99.90;;;;;;5111506;28;957;-52
2021/11/30 13:16:54;;;;;;;;;;;15.00;99.90;;;;;;5112702;28;1119;-54
2021/11/30 13:19:21;;;;;;;;;;;15.10;99.90;;;;;;5111794;28;988;-52
2021/11/30 13:21:48;;;;;;;;;;;15.10;99.90;;;;;;5113520;28;925;-54
2021/11/30 13:24:16;;;;;;;;;;;15.10;99.90;;;;;;5109669;28;1012;-54
2021/11/30 13:26:42;;;;;;;;;;;15.10;99.90;;;;;;5113976;28;1268;-54
2021/11/30 13:29:20;;;;;;;;;;;15.20;99.90;;;;;;5109467;28;1167;-52
2021/11/30 13:31:46;;;;;;;;;;;15.20;99.90;;;;;;5109325;28;1988;-52
2021/11/30 13:34:14;;;;;;;;;;;15.20;99.90;;;;;;5077561;28;1116;-54
2021/11/30 13:36:40;;;;;;;;;;;15.10;99.90;;;;;;5111164;28;946;-52
2021/11/30 13:39:07;;;;;;;;;;;15.10;99.90;;;;;;5101837;28;1211;-52
2021/11/30 13:41:34;;;;;;;;;;;15.10;99.90;;;;;;5110750;28;1001;-52
2021/11/30 13:44:00;;;;;;;;;;;15.00;99.90;;;;;;5113198;28;969;-53
2021/11/30 13:46:28;;;;;;;;;;;15.00;99.90;;;;;;5109838;28;953;-52
2021/11/30 13:49:13;;;;;;;;;;;14.90;99.90;;;;;;5082184;28;1227;-52
2021/11/30 13:51:43;;;;;;;;;;;14.90;99.90;;;;;;5110299;28;1036;-53
2021/11/30 13:54:12;;;;;;;;;;;14.80;99.90;;;;;;5113457;28;1959;-52
2021/11/30 13:56:56;;;;;;;;;;;14.80;99.90;;;;;;5112992;28;1056;-52
2021/11/30 13:59:35;;;;;;;;;;;14.70;99.90;;;;;;5110504;28;1280;-52
2021/11/30 14:02:01;;;;;;;;;;;14.70;99.90;;;;;;5104041;28;957;-54
2021/11/30 14:04:28;;;;;;;;;;;14.60;99.90;;;;;;5106522;28;1008;-54
2021/11/30 14:07:13;;;;;;;;;;;14.80;99.90;;;;;;5109589;28;1111;-52
2021/11/30 14:09:46;;;;;;;;;;;14.90;99.90;;;;;;5109059;28;1009;-52
2021/11/30 14:12:15;;;;;;;;;;;14.90;99.90;;;;;;5096355;28;1905;-52
2021/11/30 14:14:44;;;;;;;;;;;14.90;99.90;;;;;;5063820;28;1120;-53
2021/11/30 14:17:16;;;;;;;;;;;15.00;99.90;;;;;;5076113;28;1272;-52
2021/11/30 14:19:44;;;;;;;;;;;15.00;99.90;;;;;;5113141;28;1038;-53
2021/11/30 14:22:11;;;;;;;;;;;15.00;99.90;;;;;;5109286;28;1038;-52
2021/11/30 14:24:57;;;;;;;;;;;15.00;99.90;;;;;;5107657;28;1026;-52
2021/11/30 14:27:25;;;;;;;;;;;15.10;99.90;;;;;;5102625;28;1002;-52
2021/11/30 14:29:52;;;;;;;;;;;15.10;99.90;;;;;;5100746;28;1156;-54
2021/11/30 14:32:23;;;;;;;;;;;15.30;99.90;;;;;;5085533;28;1906;-53
2021/11/30 14:35:01;;;;;;;;;;;15.60;99.90;;;;;;5111467;28;1071;-52
2021/11/30 14:37:31;;;;;;;;;;;15.60;99.90;;;;;;5112266;28;1102;-52
2021/11/30 14:40:12;;;;;;;;;;;15.50;99.90;;;;;;5111973;28;961;-53
2021/11/30 14:42:39;;;;;;;;;;;15.40;99.90;;;;;;5114736;28;981;-53
2021/11/30 14:45:12;;;;;;;;;;;15.30;99.90;;;;;;5111406;28;1163;-54
2021/11/30 14:47:40;;;;;;;;;;;15.30;99.90;;;;;;5113824;28;1403;-52
2021/11/30 14:50:07;;;;;;;;;;;15.30;99.90;;;;;;5109998;28;1121;-50
2021/11/30 14:52:35;;;;;;;;;;;15.20;99.90;;;;;;5111676;28;1976;-51
2021/11/30 14:55:20;;;;;;;;;;;15.20;99.90;;;;;;5108027;28;1121;-50
2021/11/30 14:57:47;;;;;;;;;;;15.10;99.90;;;;;;5116238;28;1149;-50
2021/11/30 15:00:33;;;;;;;;;;;15.10;99.90;;;;;;5089404;28;1029;-50
2021/11/30 15:03:01;;;;;;;;;;;15.00;99.90;;;;;;5105727;28;1159;-50
2021/11/30 15:05:34;;;;;;;;;;;15.00;99.90;;;;;;5110219;28;1024;-51
2021/11/30 15:08:00;;;;;;;;;;;14.90;99.90;;;;;;5113906;28;1028;-50
2021/11/30 15:10:27;;;;;;;;;;;14.90;99.90;;;;;;5111102;28;969;-50
2021/11/30 15:13:07;;;;;;;;;;;14.80;99.90;;;;;;5114273;28;2016;-50
2021/11/30 15:15:34;;;;;;;;;;;14.80;99.90;;;;;;5102229;28;1036;-51
2021/11/30 15:18:12;;;;;;;;;;;14.70;99.90;;;;;;5105719;28;989;-50
2021/11/30 15:20:38;;;;;;;;;;;14.70;99.90;;;;;;5115785;28;972;-51
2021/11/30 15:23:05;;;;;;;;;;;14.70;99.90;;;;;;5107903;28;1372;-51
2021/11/30 15:25:31;;;;;;;;;;;14.60;99.90;;;;;;5106631;28;1036;-51
2021/11/30 15:28:01;;;;;;;;;;;14.60;99.90;;;;;;5103257;28;1005;-51
2021/11/30 15:30:28;;;;;;;;;;;14.50;99.90;;;;;;5108023;28;1040;-51
2021/11/30 15:32:56;;;;;;;;;;;14.50;99.90;;;;;;5111953;28;1910;-50
2021/11/30 15:35:22;;;;;;;;;;;14.50;99.90;;;;;;5102743;28;1150;-51
2021/11/30 15:37:49;;;;;;;;;;;14.40;99.90;;;;;;5104798;28;1017;-51
2021/11/30 15:40:17;;;;;;;;;;;14.50;99.90;;;;;;5090992;28;1095;-53
2021/11/30 15:42:46;;;;;;;;;;;14.40;99.90;;;;;;5113443;28;980;-53
2021/11/30 15:45:12;;;;;;;;;;;14.40;99.90;;;;;;5099551;28;918;-50
2021/11/30 15:47:39;;;;;;;;;;;14.30;99.90;;;;;;5112222;28;1039;-53
2021/11/30 15:50:06;;;;;;;;;;;14.30;99.90;;;;;;5098112;28;1016;-53
2021/11/30 15:52:33;;;;;;;;;;;14.30;99.90;;;;;;5104366;28;2011;-53
2021/11/30 15:55:11;;;;;;;;;;;14.20;99.90;;;;;;5112087;28;1084;-54
2021/11/30 15:57:37;;;;;;;;;;;14.20;99.90;;;;;;5115419;28;1120;-52
2021/11/30 16:00:05;;;;;;;;;;;14.20;99.90;;;;;;5100974;28;1235;-53